sensor_id;sensor_type;location;lat;lon;timestamp;pressure;altitude;pressure_sealevel;temperature
24586;BMP280;12743;52.262;6.172;2022-08-01T00:00:11;101319.25;;;19.14
24586;BMP280;12743;52.262;6.172;2022-08-01T00:02:37;101312.78;;;19.15
24586;BMP280;12743;52.262;6.172;2022-08-01T00:05:03;101315.13;;;19.20
24586;BMP280;12743;52.262;6.172;2022-08-01T00:07:31;101293.69;;;19.06
24586;BMP280;12743;52.262;6.172;2022-08-01T00:09:57;101315.84;;;19.13
24586;BMP280;12743;52.262;6.172;2022-08-01T00:12:22;101302.81;;;19.05
24586;BMP280;12743;52.262;6.172;2022-08-01T00:14:47;101313.13;;;19.10
24586;BMP280;12743;52.262;6.172;2022-08-01T00:17:13;101296.69;;;18.97
24586;BMP280;12743;52.262;6.172;2022-08-01T00:19:38;101275.38;;;18.94
24586;BMP280;12743;52.262;6.172;2022-08-01T00:22:03;101257.28;;;18.66
24586;BMP280;12743;52.262;6.172;2022-08-01T00:24:29;101268.44;;;18.82
24586;BMP280;12743;52.262;6.172;2022-08-01T00:26:54;101249.38;;;18.73
24586;BMP280;12743;52.262;6.172;2022-08-01T00:29:19;101290.94;;;18.88
24586;BMP280;12743;52.262;6.172;2022-08-01T00:31:45;101287.44;;;18.80
24586;BMP280;12743;52.262;6.172;2022-08-01T00:34:10;101314.16;;;18.91
24586;BMP280;12743;52.262;6.172;2022-08-01T00:36:35;101308.44;;;18.93
24586;BMP280;12743;52.262;6.172;2022-08-01T00:39:01;101315.75;;;19.03
24586;BMP280;12743;52.262;6.172;2022-08-01T00:41:26;101301.97;;;18.90
24586;BMP280;12743;52.262;6.172;2022-08-01T00:43:51;101239.66;;;18.51
24586;BMP280;12743;52.262;6.172;2022-08-01T00:46:17;101265.69;;;18.68
24586;BMP280;12743;52.262;6.172;2022-08-01T00:48:42;101306.19;;;18.91
24586;BMP280;12743;52.262;6.172;2022-08-01T00:51:08;101303.09;;;18.89
24586;BMP280;12743;52.262;6.172;2022-08-01T00:53:33;101288.22;;;18.81
24586;BMP280;12743;52.262;6.172;2022-08-01T00:55:59;101314.94;;;18.95
24586;BMP280;12743;52.262;6.172;2022-08-01T00:58:26;101285.56;;;18.81
24586;BMP280;12743;52.262;6.172;2022-08-01T01:00:53;101305.72;;;18.86
24586;BMP280;12743;52.262;6.172;2022-08-01T01:03:19;101300.66;;;18.70
24586;BMP280;12743;52.262;6.172;2022-08-01T01:08:35;101316.75;;;18.84
24586;BMP280;12743;52.262;6.172;2022-08-01T01:11:17;101308.66;;;18.73
24586;BMP280;12743;52.262;6.172;2022-08-01T01:13:49;101291.81;;;18.59
24586;BMP280;12743;52.262;6.172;2022-08-01T01:16:20;101277.16;;;18.39
24586;BMP280;12743;52.262;6.172;2022-08-01T01:18:55;101272.75;;;18.50
24586;BMP280;12743;52.262;6.172;2022-08-01T01:24:24;101310.84;;;18.61
24586;BMP280;12743;52.262;6.172;2022-08-01T01:27:02;101321.47;;;18.57
24586;BMP280;12743;52.262;6.172;2022-08-01T01:29:46;101303.91;;;18.53
24586;BMP280;12743;52.262;6.172;2022-08-01T01:32:26;101300.06;;;18.47
24586;BMP280;12743;52.262;6.172;2022-08-01T01:34:54;101318.44;;;18.62
24586;BMP280;12743;52.262;6.172;2022-08-01T01:37:23;101315.38;;;18.60
24586;BMP280;12743;52.262;6.172;2022-08-01T01:42:43;101278.00;;;18.46
24586;BMP280;12743;52.262;6.172;2022-08-01T01:45:21;101296.56;;;18.39
24586;BMP280;12743;52.262;6.172;2022-08-01T01:47:49;101281.75;;;18.38
24586;BMP280;12743;52.262;6.172;2022-08-01T01:50:15;101322.28;;;18.65
24586;BMP280;12743;52.262;6.172;2022-08-01T01:52:42;101315.72;;;18.55
24586;BMP280;12743;52.262;6.172;2022-08-01T01:55:10;101286.94;;;18.28
24586;BMP280;12743;52.262;6.172;2022-08-01T01:57:37;101316.78;;;18.47
24586;BMP280;12743;52.262;6.172;2022-08-01T02:00:04;101305.38;;;18.47
24586;BMP280;12743;52.262;6.172;2022-08-01T02:02:32;101310.78;;;18.54
24586;BMP280;12743;52.262;6.172;2022-08-01T02:04:59;101301.53;;;18.41
24586;BMP280;12743;52.262;6.172;2022-08-01T02:07:25;101295.00;;;18.35
24586;BMP280;12743;52.262;6.172;2022-08-01T02:09:52;101303.03;;;18.38
24586;BMP280;12743;52.262;6.172;2022-08-01T02:12:18;101294.72;;;18.43
24586;BMP280;12743;52.262;6.172;2022-08-01T02:14:47;101331.31;;;18.57
24586;BMP280;12743;52.262;6.172;2022-08-01T02:17:16;101262.03;;;18.06
24586;BMP280;12743;52.262;6.172;2022-08-01T02:19:42;101326.66;;;18.47
24586;BMP280;12743;52.262;6.172;2022-08-01T02:22:10;101264.84;;;18.20
24586;BMP280;12743;52.262;6.172;2022-08-01T02:27:09;101298.13;;;18.44
24586;BMP280;12743;52.262;6.172;2022-08-01T02:29:59;101296.31;;;18.51
24586;BMP280;12743;52.262;6.172;2022-08-01T02:32:53;101305.94;;;18.66
24586;BMP280;12743;52.262;6.172;2022-08-01T02:35:24;101297.47;;;18.54
24586;BMP280;12743;52.262;6.172;2022-08-01T02:37:52;101314.34;;;18.68
24586;BMP280;12743;52.262;6.172;2022-08-01T02:40:19;101323.44;;;18.64
24586;BMP280;12743;52.262;6.172;2022-08-01T02:42:47;101281.78;;;18.42
24586;BMP280;12743;52.262;6.172;2022-08-01T02:45:17;101328.31;;;18.58
24586;BMP280;12743;52.262;6.172;2022-08-01T02:47:44;101305.34;;;18.43
24586;BMP280;12743;52.262;6.172;2022-08-01T02:50:12;101292.78;;;18.40
24586;BMP280;12743;52.262;6.172;2022-08-01T02:52:40;101290.53;;;18.46
24586;BMP280;12743;52.262;6.172;2022-08-01T02:55:08;101323.03;;;18.65
24586;BMP280;12743;52.262;6.172;2022-08-01T02:57:34;101281.69;;;18.31
24586;BMP280;12743;52.262;6.172;2022-08-01T03:00:03;101314.59;;;18.56
24586;BMP280;12743;52.262;6.172;2022-08-01T03:02:30;101301.59;;;18.48
24586;BMP280;12743;52.262;6.172;2022-08-01T03:04:56;101315.66;;;18.45
24586;BMP280;12743;52.262;6.172;2022-08-01T03:07:23;101328.69;;;18.60
24586;BMP280;12743;52.262;6.172;2022-08-01T03:09:50;101307.69;;;18.48
24586;BMP280;12743;52.262;6.172;2022-08-01T03:12:19;101310.78;;;18.54
24586;BMP280;12743;52.262;6.172;2022-08-01T03:14:46;101333.31;;;18.63
24586;BMP280;12743;52.262;6.172;2022-08-01T03:17:14;101309.97;;;18.50
24586;BMP280;12743;52.262;6.172;2022-08-01T03:19:44;101321.56;;;18.68
24586;BMP280;12743;52.262;6.172;2022-08-01T03:22:12;101323.81;;;18.66
24586;BMP280;12743;52.262;6.172;2022-08-01T03:24:40;101305.75;;;18.45
24586;BMP280;12743;52.262;6.172;2022-08-01T03:27:07;101322.31;;;18.68
24586;BMP280;12743;52.262;6.172;2022-08-01T03:29:34;101316.75;;;18.44
24586;BMP280;12743;52.262;6.172;2022-08-01T03:32:01;101282.47;;;18.32
24586;BMP280;12743;52.262;6.172;2022-08-01T03:34:28;101333.69;;;18.69
24586;BMP280;12743;52.262;6.172;2022-08-01T03:37:02;101328.81;;;18.71
24586;BMP280;12743;52.262;6.172;2022-08-01T03:39:31;101314.31;;;18.65
24586;BMP280;12743;52.262;6.172;2022-08-01T03:42:03;101328.31;;;18.58
24586;BMP280;12743;52.262;6.172;2022-08-01T03:44:32;101307.69;;;18.52
24586;BMP280;12743;52.262;6.172;2022-08-01T03:47:02;101318.75;;;18.54
24586;BMP280;12743;52.262;6.172;2022-08-01T03:49:31;101328.31;;;18.62
24586;BMP280;12743;52.262;6.172;2022-08-01T03:51:58;101300.78;;;18.44
24586;BMP280;12743;52.262;6.172;2022-08-01T03:54:28;101331.41;;;18.64
24586;BMP280;12743;52.262;6.172;2022-08-01T03:56:57;101324.91;;;18.61
24586;BMP280;12743;52.262;6.172;2022-08-01T03:59:22;101334.78;;;18.61
24586;BMP280;12743;52.262;6.172;2022-08-01T04:01:52;101316.09;;;18.54
24586;BMP280;12743;52.262;6.172;2022-08-01T04:04:18;101316.00;;;18.47
24586;BMP280;12743;52.262;6.172;2022-08-01T04:06:44;101333.06;;;18.42
24586;BMP280;12743;52.262;6.172;2022-08-01T04:09:10;101341.50;;;18.48
24586;BMP280;12743;52.262;6.172;2022-08-01T04:11:37;101319.72;;;18.35
24586;BMP280;12743;52.262;6.172;2022-08-01T04:14:02;101325.31;;;18.27
24586;BMP280;12743;52.262;6.172;2022-08-01T04:16:28;101320.81;;;18.31
24586;BMP280;12743;52.262;6.172;2022-08-01T04:18:54;101322.81;;;18.41
24586;BMP280;12743;52.262;6.172;2022-08-01T04:21:25;101334.72;;;18.54
24586;BMP280;12743;52.262;6.172;2022-08-01T04:23:54;101301.09;;;18.32
24586;BMP280;12743;52.262;6.172;2022-08-01T04:26:24;101315.91;;;18.36
24586;BMP280;12743;52.262;6.172;2022-08-01T04:28:52;101338.41;;;18.46
24586;BMP280;12743;52.262;6.172;2022-08-01T04:31:17;101336.06;;;18.37
24586;BMP280;12743;52.262;6.172;2022-08-01T04:33:47;101335.56;;;18.25
24586;BMP280;12743;52.262;6.172;2022-08-01T04:36:18;101357.00;;;18.09
24586;BMP280;12743;52.262;6.172;2022-08-01T04:38:45;101311.53;;;17.84
24586;BMP280;12743;52.262;6.172;2022-08-01T04:41:12;101367.97;;;18.04
24586;BMP280;12743;52.262;6.172;2022-08-01T04:43:38;101325.75;;;17.69
24586;BMP280;12743;52.262;6.172;2022-08-01T04:46:05;101344.50;;;17.54
24586;BMP280;12743;52.262;6.172;2022-08-01T04:48:32;101380.13;;;17.75
24586;BMP280;12743;52.262;6.172;2022-08-01T04:50:57;101382.34;;;17.73
24586;BMP280;12743;52.262;6.172;2022-08-01T04:53:23;101378.25;;;17.53
24586;BMP280;12743;52.262;6.172;2022-08-01T04:55:49;101347.19;;;17.31
24586;BMP280;12743;52.262;6.172;2022-08-01T04:58:15;101365.28;;;17.48
24586;BMP280;12743;52.262;6.172;2022-08-01T05:00:41;101386.16;;;17.72
24586;BMP280;12743;52.262;6.172;2022-08-01T05:03:06;101366.19;;;17.56
24586;BMP280;12743;52.262;6.172;2022-08-01T05:05:31;101360.19;;;17.36
24586;BMP280;12743;52.262;6.172;2022-08-01T05:07:57;101364.59;;;17.51
24586;BMP280;12743;52.262;6.172;2022-08-01T05:10:23;101392.75;;;17.82
24586;BMP280;12743;52.262;6.172;2022-08-01T05:12:48;101369.22;;;17.58
24586;BMP280;12743;52.262;6.172;2022-08-01T05:15:13;101376.66;;;17.45
24586;BMP280;12743;52.262;6.172;2022-08-01T05:17:39;101389.91;;;17.71
24586;BMP280;12743;52.262;6.172;2022-08-01T05:20:05;101349.81;;;17.54
24586;BMP280;12743;52.262;6.172;2022-08-01T05:22:31;101377.66;;;17.63
24586;BMP280;12743;52.262;6.172;2022-08-01T05:24:57;101344.97;;;17.37
24586;BMP280;12743;52.262;6.172;2022-08-01T05:27:22;101375.81;;;17.67
24586;BMP280;12743;52.262;6.172;2022-08-01T05:29:48;101367.78;;;17.64
24586;BMP280;12743;52.262;6.172;2022-08-01T05:32:13;101386.81;;;17.92
24586;BMP280;12743;52.262;6.172;2022-08-01T05:34:38;101395.50;;;17.89
24586;BMP280;12743;52.262;6.172;2022-08-01T05:37:04;101412.13;;;17.82
24586;BMP280;12743;52.262;6.172;2022-08-01T05:39:29;101408.47;;;17.68
24586;BMP280;12743;52.262;6.172;2022-08-01T05:41:55;101391.47;;;17.76
24586;BMP280;12743;52.262;6.172;2022-08-01T05:44:20;101415.19;;;17.84
24586;BMP280;12743;52.262;6.172;2022-08-01T05:46:45;101376.03;;;17.55
24586;BMP280;12743;52.262;6.172;2022-08-01T05:49:11;101410.94;;;17.80
24586;BMP280;12743;52.262;6.172;2022-08-01T05:51:36;101402.13;;;17.76
24586;BMP280;12743;52.262;6.172;2022-08-01T05:54:02;101375.19;;;17.77
24586;BMP280;12743;52.262;6.172;2022-08-01T05:56:28;101409.22;;;17.95
24586;BMP280;12743;52.262;6.172;2022-08-01T05:58:53;101413.94;;;18.05
24586;BMP280;12743;52.262;6.172;2022-08-01T06:01:19;101368.91;;;17.63
24586;BMP280;12743;52.262;6.172;2022-08-01T06:03:45;101409.88;;;17.84
24586;BMP280;12743;52.262;6.172;2022-08-01T06:06:10;101399.44;;;17.76
24586;BMP280;12743;52.262;6.172;2022-08-01T06:08:35;101414.22;;;18.00
24586;BMP280;12743;52.262;6.172;2022-08-01T06:11:01;101425.06;;;18.14
24586;BMP280;12743;52.262;6.172;2022-08-01T06:13:27;101425.78;;;18.11
24586;BMP280;12743;52.262;6.172;2022-08-01T06:15:52;101410.19;;;17.83
24586;BMP280;12743;52.262;6.172;2022-08-01T06:18:23;101388.91;;;17.79
24586;BMP280;12743;52.262;6.172;2022-08-01T06:20:48;101419.97;;;18.02
24586;BMP280;12743;52.262;6.172;2022-08-01T06:23:13;101406.38;;;17.80
24586;BMP280;12743;52.262;6.172;2022-08-01T06:25:41;101431.06;;;18.07
24586;BMP280;12743;52.262;6.172;2022-08-01T06:28:07;101430.91;;;17.97
24586;BMP280;12743;52.262;6.172;2022-08-01T06:30:32;101399.13;;;17.77
24586;BMP280;12743;52.262;6.172;2022-08-01T06:32:58;101413.28;;;17.85
24586;BMP280;12743;52.262;6.172;2022-08-01T06:35:25;101400.84;;;17.66
24586;BMP280;12743;52.262;6.172;2022-08-01T06:37:51;101430.72;;;17.82
24586;BMP280;12743;52.262;6.172;2022-08-01T06:40:16;101434.25;;;17.67
24586;BMP280;12743;52.262;6.172;2022-08-01T06:42:43;101455.06;;;17.84
24586;BMP280;12743;52.262;6.172;2022-08-01T06:45:11;101461.28;;;17.99
24586;BMP280;12743;52.262;6.172;2022-08-01T06:47:37;101429.91;;;17.78
24586;BMP280;12743;52.262;6.172;2022-08-01T06:50:04;101458.56;;;17.92
24586;BMP280;12743;52.262;6.172;2022-08-01T06:52:30;101416.78;;;17.66
24586;BMP280;12743;52.262;6.172;2022-08-01T06:54:55;101431.56;;;17.90
24586;BMP280;12743;52.262;6.172;2022-08-01T06:57:21;101456.09;;;18.06
24586;BMP280;12743;52.262;6.172;2022-08-01T06:59:46;101436.25;;;18.00
24586;BMP280;12743;52.262;6.172;2022-08-01T07:02:12;101439.97;;;17.92
24586;BMP280;12743;52.262;6.172;2022-08-01T07:04:37;101390.09;;;17.56
24586;BMP280;12743;52.262;6.172;2022-08-01T07:07:03;101454.25;;;18.10
24586;BMP280;12743;52.262;6.172;2022-08-01T07:09:29;101439.84;;;18.11
24586;BMP280;12743;52.262;6.172;2022-08-01T07:11:54;101452.25;;;18.30
24586;BMP280;12743;52.262;6.172;2022-08-01T07:14:21;101461.72;;;18.27
24586;BMP280;12743;52.262;6.172;2022-08-01T07:16:47;101461.34;;;18.29
24586;BMP280;12743;52.262;6.172;2022-08-01T07:19:13;101423.38;;;17.99
24586;BMP280;12743;52.262;6.172;2022-08-01T07:21:39;101437.72;;;17.94
24586;BMP280;12743;52.262;6.172;2022-08-01T07:24:05;101438.16;;;18.00
24586;BMP280;12743;52.262;6.172;2022-08-01T07:26:31;101413.03;;;17.94
24586;BMP280;12743;52.262;6.172;2022-08-01T07:28:56;101430.81;;;17.89
24586;BMP280;12743;52.262;6.172;2022-08-01T07:31:22;101451.38;;;18.22
24586;BMP280;12743;52.262;6.172;2022-08-01T07:33:48;101412.78;;;18.32
24586;BMP280;12743;52.262;6.172;2022-08-01T07:36:17;101429.97;;;18.41
24586;BMP280;12743;52.262;6.172;2022-08-01T07:38:44;101441.66;;;18.33
24586;BMP280;12743;52.262;6.172;2022-08-01T07:41:09;101467.91;;;18.35
24586;BMP280;12743;52.262;6.172;2022-08-01T07:43:34;101443.69;;;18.43
24586;BMP280;12743;52.262;6.172;2022-08-01T07:46:02;101458.91;;;19.16
24586;BMP280;12743;52.262;6.172;2022-08-01T07:48:27;101470.84;;;19.33
24586;BMP280;12743;52.262;6.172;2022-08-01T07:50:52;101440.25;;;18.43
24586;BMP280;12743;52.262;6.172;2022-08-01T07:53:18;101472.22;;;18.79
24586;BMP280;12743;52.262;6.172;2022-08-01T07:55:43;101476.00;;;19.15
24586;BMP280;12743;52.262;6.172;2022-08-01T07:58:08;101468.63;;;19.42
24586;BMP280;12743;52.262;6.172;2022-08-01T08:00:34;101488.66;;;19.25
24586;BMP280;12743;52.262;6.172;2022-08-01T08:02:59;101455.28;;;18.91
24586;BMP280;12743;52.262;6.172;2022-08-01T08:05:26;101477.44;;;19.06
24586;BMP280;12743;52.262;6.172;2022-08-01T08:07:51;101483.13;;;19.44
24586;BMP280;12743;52.262;6.172;2022-08-01T08:10:16;101483.00;;;19.27
24586;BMP280;12743;52.262;6.172;2022-08-01T08:12:42;101475.00;;;19.27
24586;BMP280;12743;52.262;6.172;2022-08-01T08:15:08;101462.09;;;19.36
24586;BMP280;12743;52.262;6.172;2022-08-01T08:17:33;101482.94;;;19.67
24586;BMP280;12743;52.262;6.172;2022-08-01T08:19:59;101468.53;;;19.78
24586;BMP280;12743;52.262;6.172;2022-08-01T08:22:24;101469.97;;;19.65
24586;BMP280;12743;52.262;6.172;2022-08-01T08:24:50;101467.47;;;19.87
24586;BMP280;12743;52.262;6.172;2022-08-01T08:27:15;101471.88;;;20.33
24586;BMP280;12743;52.262;6.172;2022-08-01T08:29:40;101479.22;;;19.78
24586;BMP280;12743;52.262;6.172;2022-08-01T08:32:07;101489.59;;;19.98
24586;BMP280;12743;52.262;6.172;2022-08-01T08:34:32;101495.56;;;19.77
24586;BMP280;12743;52.262;6.172;2022-08-01T08:36:57;101490.06;;;19.52
24586;BMP280;12743;52.262;6.172;2022-08-01T08:39:24;101500.00;;;19.62
24586;BMP280;12743;52.262;6.172;2022-08-01T08:41:49;101455.56;;;19.70
24586;BMP280;12743;52.262;6.172;2022-08-01T08:44:16;101508.78;;;19.63
24586;BMP280;12743;52.262;6.172;2022-08-01T08:46:43;101503.34;;;20.00
24586;BMP280;12743;52.262;6.172;2022-08-01T08:49:10;101512.16;;;20.11
24586;BMP280;12743;52.262;6.172;2022-08-01T08:51:39;101506.91;;;20.25
24586;BMP280;12743;52.262;6.172;2022-08-01T08:54:06;101517.91;;;20.13
24586;BMP280;12743;52.262;6.172;2022-08-01T08:56:34;101485.34;;;19.86
24586;BMP280;12743;52.262;6.172;2022-08-01T08:59:01;101520.97;;;20.22
24586;BMP280;12743;52.262;6.172;2022-08-01T09:01:27;101527.81;;;20.12
24586;BMP280;12743;52.262;6.172;2022-08-01T09:03:52;101510.22;;;20.04
24586;BMP280;12743;52.262;6.172;2022-08-01T09:06:18;101500.91;;;20.45
24586;BMP280;12743;52.262;6.172;2022-08-01T09:08:44;101497.88;;;20.57
24586;BMP280;12743;52.262;6.172;2022-08-01T09:11:09;101528.78;;;20.58
24586;BMP280;12743;52.262;6.172;2022-08-01T09:13:35;101525.34;;;20.58
24586;BMP280;12743;52.262;6.172;2022-08-01T09:16:00;101484.56;;;19.82
24586;BMP280;12743;52.262;6.172;2022-08-01T09:18:28;101539.56;;;20.04
24586;BMP280;12743;52.262;6.172;2022-08-01T09:21:21;101543.69;;;20.70
24586;BMP280;12743;52.262;6.172;2022-08-01T09:23:49;101533.88;;;21.13
24586;BMP280;12743;52.262;6.172;2022-08-01T09:26:20;101538.00;;;20.75
24586;BMP280;12743;52.262;6.172;2022-08-01T09:28:47;101534.47;;;20.53
24586;BMP280;12743;52.262;6.172;2022-08-01T09:31:18;101530.28;;;20.49
24586;BMP280;12743;52.262;6.172;2022-08-01T09:33:50;101517.19;;;20.23
24586;BMP280;12743;52.262;6.172;2022-08-01T09:36:16;101540.28;;;20.80
24586;BMP280;12743;52.262;6.172;2022-08-01T09:38:41;101545.19;;;20.60
24586;BMP280;12743;52.262;6.172;2022-08-01T09:41:07;101530.06;;;21.03
24586;BMP280;12743;52.262;6.172;2022-08-01T09:43:32;101429.91;;;20.23
24586;BMP280;12743;52.262;6.172;2022-08-01T09:45:59;101532.97;;;20.59
24586;BMP280;12743;52.262;6.172;2022-08-01T09:48:25;101523.47;;;20.65
24586;BMP280;12743;52.262;6.172;2022-08-01T09:50:53;101544.13;;;20.97
24586;BMP280;12743;52.262;6.172;2022-08-01T09:53:19;101537.25;;;20.78
24586;BMP280;12743;52.262;6.172;2022-08-01T09:55:44;101543.66;;;20.56
24586;BMP280;12743;52.262;6.172;2022-08-01T09:58:10;101558.22;;;20.76
24586;BMP280;12743;52.262;6.172;2022-08-01T10:00:38;101550.25;;;20.97
24586;BMP280;12743;52.262;6.172;2022-08-01T10:03:21;101557.84;;;20.81
24586;BMP280;12743;52.262;6.172;2022-08-01T10:05:48;101564.03;;;21.13
24586;BMP280;12743;52.262;6.172;2022-08-01T10:08:13;101548.03;;;21.62
24586;BMP280;12743;52.262;6.172;2022-08-01T10:10:39;101570.56;;;21.82
24586;BMP280;12743;52.262;6.172;2022-08-01T10:13:04;101551.47;;;21.73
24586;BMP280;12743;52.262;6.172;2022-08-01T10:15:30;101558.72;;;21.59
24586;BMP280;12743;52.262;6.172;2022-08-01T10:18:00;101573.63;;;21.77
24586;BMP280;12743;52.262;6.172;2022-08-01T10:20:29;101560.66;;;21.55
24586;BMP280;12743;52.262;6.172;2022-08-01T10:22:55;101555.69;;;21.39
24586;BMP280;12743;52.262;6.172;2022-08-01T10:25:23;101502.59;;;21.34
24586;BMP280;12743;52.262;6.172;2022-08-01T10:27:52;101550.31;;;21.67
24586;BMP280;12743;52.262;6.172;2022-08-01T10:30:20;101565.63;;;21.74
24586;BMP280;12743;52.262;6.172;2022-08-01T10:32:46;101552.94;;;21.92
24586;BMP280;12743;52.262;6.172;2022-08-01T10:35:12;101583.19;;;21.71
24586;BMP280;12743;52.262;6.172;2022-08-01T10:37:43;101572.09;;;21.69
24586;BMP280;12743;52.262;6.172;2022-08-01T10:40:11;101562.88;;;22.13
24586;BMP280;12743;52.262;6.172;2022-08-01T10:42:38;101583.84;;;22.28
24586;BMP280;12743;52.262;6.172;2022-08-01T10:45:04;101563.66;;;21.92
24586;BMP280;12743;52.262;6.172;2022-08-01T10:47:42;101574.66;;;22.33
24586;BMP280;12743;52.262;6.172;2022-08-01T10:50:18;101575.91;;;21.82
24586;BMP280;12743;52.262;6.172;2022-08-01T10:58:34;101569.16;;;22.61
24586;BMP280;12743;52.262;6.172;2022-08-01T11:01:22;101582.78;;;21.91
24586;BMP280;12743;52.262;6.172;2022-08-01T11:03:58;101573.84;;;22.43
24586;BMP280;12743;52.262;6.172;2022-08-01T11:06:26;101522.72;;;22.13
24586;BMP280;12743;52.262;6.172;2022-08-01T11:08:54;101577.09;;;22.82
24586;BMP280;12743;52.262;6.172;2022-08-01T11:11:20;101570.06;;;22.40
24586;BMP280;12743;52.262;6.172;2022-08-01T11:14:02;101577.28;;;23.16
24586;BMP280;12743;52.262;6.172;2022-08-01T11:16:39;101573.47;;;23.13
24586;BMP280;12743;52.262;6.172;2022-08-01T11:19:06;101557.50;;;22.99
24586;BMP280;12743;52.262;6.172;2022-08-01T11:29:41;101547.97;;;22.87
24586;BMP280;12743;52.262;6.172;2022-08-01T11:32:49;101574.66;;;23.05
24586;BMP280;12743;52.262;6.172;2022-08-01T11:35:15;101544.38;;;23.08
24586;BMP280;12743;52.262;6.172;2022-08-01T11:37:40;101561.88;;;22.65
24586;BMP280;12743;52.262;6.172;2022-08-01T11:40:19;101575.44;;;23.06
24586;BMP280;12743;52.262;6.172;2022-08-01T11:42:46;101559.59;;;22.70
24586;BMP280;12743;52.262;6.172;2022-08-01T11:45:11;101579.97;;;22.47
24586;BMP280;12743;52.262;6.172;2022-08-01T11:47:48;101574.09;;;22.73
24586;BMP280;12743;52.262;6.172;2022-08-01T11:53:03;101581.59;;;22.09
24586;BMP280;12743;52.262;6.172;2022-08-01T11:55:30;101582.78;;;22.01
24586;BMP280;12743;52.262;6.172;2022-08-01T11:58:03;101564.03;;;22.05
24586;BMP280;12743;52.262;6.172;2022-08-01T12:00:28;101567.44;;;22.12
24586;BMP280;12743;52.262;6.172;2022-08-01T12:03:01;101588.00;;;22.50
24586;BMP280;12743;52.262;6.172;2022-08-01T12:05:28;101569.75;;;22.03
24586;BMP280;12743;52.262;6.172;2022-08-01T12:07:55;101591.56;;;22.02
24586;BMP280;12743;52.262;6.172;2022-08-01T12:10:28;101588.81;;;22.30
24586;BMP280;12743;52.262;6.172;2022-08-01T12:13:00;101591.03;;;22.59
24586;BMP280;12743;52.262;6.172;2022-08-01T12:15:30;101585.88;;;22.89
24586;BMP280;12743;52.262;6.172;2022-08-01T12:17:57;101573.91;;;22.29
24586;BMP280;12743;52.262;6.172;2022-08-01T12:20:24;101585.84;;;22.93
24586;BMP280;12743;52.262;6.172;2022-08-01T12:22:57;101572.00;;;23.02
24586;BMP280;12743;52.262;6.172;2022-08-01T12:25:23;101571.22;;;23.05
24586;BMP280;12743;52.262;6.172;2022-08-01T12:27:49;101587.81;;;23.40
24586;BMP280;12743;52.262;6.172;2022-08-01T12:30:16;101597.31;;;23.48
24586;BMP280;12743;52.262;6.172;2022-08-01T12:32:44;101591.72;;;23.32
24586;BMP280;12743;52.262;6.172;2022-08-01T12:35:18;101577.09;;;22.89
24586;BMP280;12743;52.262;6.172;2022-08-01T12:37:51;101597.00;;;22.81
24586;BMP280;12743;52.262;6.172;2022-08-01T12:42:49;101557.97;;;22.83
24586;BMP280;12743;52.262;6.172;2022-08-01T12:45:21;101552.88;;;23.03
24586;BMP280;12743;52.262;6.172;2022-08-01T12:47:48;101588.69;;;22.61
24586;BMP280;12743;52.262;6.172;2022-08-01T12:50:20;101587.44;;;22.87
24586;BMP280;12743;52.262;6.172;2022-08-01T12:52:46;101600.09;;;23.38
24586;BMP280;12743;52.262;6.172;2022-08-01T12:55:14;101579.56;;;23.65
24586;BMP280;12743;52.262;6.172;2022-08-01T12:57:45;101590.53;;;23.37
24586;BMP280;12743;52.262;6.172;2022-08-01T13:00:33;101593.28;;;23.70
24586;BMP280;12743;52.262;6.172;2022-08-01T13:03:11;101580.03;;;23.56
24586;BMP280;12743;52.262;6.172;2022-08-01T13:05:48;101555.69;;;22.75
24586;BMP280;12743;52.262;6.172;2022-08-01T13:08:19;101556.78;;;22.91
24586;BMP280;12743;52.262;6.172;2022-08-01T13:10:45;101577.91;;;23.30
24586;BMP280;12743;52.262;6.172;2022-08-01T13:13:12;101587.44;;;23.86
24586;BMP280;12743;52.262;6.172;2022-08-01T13:15:40;101593.03;;;23.98
24586;BMP280;12743;52.262;6.172;2022-08-01T13:18:24;101583.84;;;24.30
24586;BMP280;12743;52.262;6.172;2022-08-01T13:20:50;101596.88;;;23.97
24586;BMP280;12743;52.262;6.172;2022-08-01T13:23:31;101538.78;;;23.77
24586;BMP280;12743;52.262;6.172;2022-08-01T13:25:56;101561.09;;;23.33
24586;BMP280;12743;52.262;6.172;2022-08-01T13:28:25;101522.63;;;24.17
24586;BMP280;12743;52.262;6.172;2022-08-01T13:30:56;101593.84;;;24.29
24586;BMP280;12743;52.262;6.172;2022-08-01T13:33:23;101548.38;;;24.45
24586;BMP280;12743;52.262;6.172;2022-08-01T13:35:54;101575.53;;;25.27
24586;BMP280;12743;52.262;6.172;2022-08-01T13:38:19;101580.16;;;25.26
24586;BMP280;12743;52.262;6.172;2022-08-01T13:40:45;101541.66;;;24.83
24586;BMP280;12743;52.262;6.172;2022-08-01T13:43:10;101592.19;;;24.05
24586;BMP280;12743;52.262;6.172;2022-08-01T13:45:36;101562.94;;;24.44
24586;BMP280;12743;52.262;6.172;2022-08-01T13:48:01;101532.63;;;23.83
24586;BMP280;12743;52.262;6.172;2022-08-01T13:50:27;101564.44;;;23.81
24586;BMP280;12743;52.262;6.172;2022-08-01T13:52:52;101558.56;;;23.93
24586;BMP280;12743;52.262;6.172;2022-08-01T13:55:18;101548.97;;;24.26
24586;BMP280;12743;52.262;6.172;2022-08-01T13:57:43;101526.72;;;23.95
24586;BMP280;12743;52.262;6.172;2022-08-01T14:00:09;101560.50;;;23.56
24586;BMP280;12743;52.262;6.172;2022-08-01T14:02:38;101562.84;;;22.99
24586;BMP280;12743;52.262;6.172;2022-08-01T14:05:03;101574.78;;;24.50
24586;BMP280;12743;52.262;6.172;2022-08-01T14:07:29;101521.38;;;24.52
24586;BMP280;12743;52.262;6.172;2022-08-01T14:09:54;101563.63;;;25.48
24586;BMP280;12743;52.262;6.172;2022-08-01T14:12:20;101562.91;;;25.47
24586;BMP280;12743;52.262;6.172;2022-08-01T14:14:45;101560.50;;;25.29
24586;BMP280;12743;52.262;6.172;2022-08-01T14:17:10;101542.66;;;25.39
24586;BMP280;12743;52.262;6.172;2022-08-01T14:19:36;101554.00;;;25.89
24586;BMP280;12743;52.262;6.172;2022-08-01T14:22:02;101546.63;;;25.74
24586;BMP280;12743;52.262;6.172;2022-08-01T14:24:27;101544.56;;;25.81
24586;BMP280;12743;52.262;6.172;2022-08-01T14:26:53;101554.91;;;26.02
24586;BMP280;12743;52.262;6.172;2022-08-01T14:29:18;101549.34;;;26.29